createdAt,value
2023-05-04T00:00:39.361Z,6.68
2023-05-04T00:10:45.871Z,6.09
2023-05-04T00:20:52.819Z,6.10
2023-05-04T00:30:59.317Z,6.27
2023-05-04T00:41:05.823Z,6.11
2023-05-04T00:51:13.386Z,6.22
2023-05-04T01:01:19.918Z,5.98
2023-05-04T01:11:31.360Z,5.88
2023-05-04T01:21:38.298Z,5.51
2023-05-04T01:31:46.714Z,5.31
2023-05-04T01:41:53.397Z,4.98
2023-05-04T01:52:00.019Z,5.06
2023-05-04T02:02:06.987Z,5.32
2023-05-04T02:12:13.590Z,4.94
2023-05-04T02:22:20.113Z,4.87
2023-05-04T02:32:27.540Z,4.84
2023-05-04T02:42:34.682Z,4.93
2023-05-04T02:52:41.153Z,5.01
2023-05-04T03:02:47.752Z,4.69
2023-05-04T03:12:54.323Z,4.71
2023-05-04T03:23:00.908Z,4.44
2023-05-04T03:33:07.480Z,4.49
2023-05-04T03:43:14.169Z,4.10
2023-05-04T03:53:20.693Z,4.36
2023-05-04T04:03:27.350Z,4.76
2023-05-04T04:13:33.974Z,5.77
2023-05-04T04:23:40.470Z,6.91
2023-05-04T04:33:47.082Z,7.76
2023-05-04T04:43:53.533Z,9.08
2023-05-04T04:54:00.015Z,10.43
2023-05-04T05:04:07.026Z,11.61
2023-05-04T05:14:13.736Z,11.91
2023-05-04T05:24:20.220Z,12.83
2023-05-04T05:34:26.680Z,14.70
2023-05-04T05:44:33.193Z,14.99
2023-05-04T05:54:39.693Z,15.16
2023-05-04T06:04:46.582Z,15.83
2023-05-04T06:14:53.160Z,17.42
2023-05-04T06:25:03.748Z,16.56
2023-05-04T06:35:13.090Z,15.69
2023-05-04T06:45:20.191Z,16.99
2023-05-04T06:55:26.771Z,17.67
2023-05-04T07:05:37.101Z,17.75
2023-05-04T07:15:43.645Z,18.27
2023-05-04T07:25:51.046Z,18.20
2023-05-04T07:36:00.029Z,16.97
2023-05-04T07:46:06.469Z,17.97
2023-05-04T07:56:14.262Z,17.99
2023-05-04T08:06:20.701Z,18.14
2023-05-04T08:16:27.287Z,16.16
2023-05-04T08:26:33.868Z,18.34
2023-05-04T08:36:40.339Z,17.91
2023-05-04T08:46:53.865Z,19.35
2023-05-04T08:57:00.799Z,20.40
2023-05-04T09:07:07.690Z,20.03
2023-05-04T09:17:29.328Z,20.49
2023-05-04T09:27:33.963Z,21.21
2023-05-04T09:37:48.194Z,20.90
2023-05-04T09:47:55.677Z,19.06
2023-05-04T09:58:02.498Z,18.42
2023-05-04T10:08:09.733Z,20.49
2023-05-04T10:18:36.008Z,20.49
2023-05-04T10:29:13.798Z,19.83
2023-05-04T10:39:25.319Z,20.59
2023-05-04T10:49:32.115Z,21.74
2023-05-04T10:59:39.291Z,21.18
2023-05-04T11:09:45.864Z,22.41
2023-05-04T11:19:53.649Z,18.72
2023-05-04T11:30:02.117Z,20.99
2023-05-04T11:40:20.551Z,20.63
2023-05-04T11:50:28.206Z,20.78
2023-05-04T12:00:45.653Z,21.35
2023-05-04T12:10:52.419Z,21.88
2023-05-04T12:21:09.443Z,21.89
2023-05-04T12:31:15.988Z,23.18
2023-05-04T12:41:22.835Z,20.81
2023-05-04T12:51:29.286Z,20.43
2023-05-04T13:01:36.168Z,20.16
2023-05-04T13:11:43.430Z,22.17
2023-05-04T13:21:50.182Z,19.87
2023-05-04T13:31:56.707Z,20.10
2023-05-04T13:42:03.443Z,19.30
2023-05-04T13:52:10.079Z,19.35
2023-05-04T14:02:16.593Z,19.06
2023-05-04T14:12:23.687Z,19.12
2023-05-04T14:22:30.168Z,19.71
2023-05-04T14:32:37.725Z,18.37
2023-05-04T14:42:44.261Z,19.18
2023-05-04T14:52:50.757Z,18.52
2023-05-04T15:02:57.425Z,19.03
2023-05-04T15:13:04.610Z,18.73
2023-05-04T15:23:14.053Z,17.92
2023-05-04T15:33:20.546Z,17.76
2023-05-04T15:43:27.047Z,18.10
2023-05-04T15:53:33.612Z,17.82
2023-05-04T16:03:40.130Z,17.09
2023-05-04T16:13:47.635Z,16.91
2023-05-04T16:23:54.140Z,16.95
2023-05-04T16:34:00.645Z,16.41
2023-05-04T16:44:07.205Z,16.28
2023-05-04T16:54:13.662Z,15.95
2023-05-04T17:04:20.094Z,15.57
2023-05-04T17:14:26.575Z,15.34
2023-05-04T17:24:33.365Z,15.09
2023-05-04T17:34:39.842Z,14.93
2023-05-04T17:44:46.612Z,14.61
2023-05-04T17:54:54.526Z,14.38
2023-05-04T18:05:01.336Z,14.24
2023-05-04T18:15:10.291Z,14.29
2023-05-04T18:25:16.759Z,13.65
2023-05-04T18:35:23.873Z,13.51
2023-05-04T18:45:30.400Z,13.60
2023-05-04T18:55:37.048Z,13.47
2023-05-04T19:05:44.904Z,13.52
2023-05-04T19:15:51.481Z,13.38
2023-05-04T19:25:57.963Z,13.06
2023-05-04T19:36:04.637Z,12.82
2023-05-04T19:46:11.184Z,12.83
2023-05-04T19:56:17.724Z,12.44
2023-05-04T20:06:24.270Z,12.48
2023-05-04T20:16:30.777Z,12.16
2023-05-04T20:26:37.427Z,12.09
2023-05-04T20:36:44.276Z,11.88
2023-05-04T20:46:50.787Z,11.64
2023-05-04T20:56:57.296Z,11.73
2023-05-04T21:07:03.748Z,11.54
2023-05-04T21:17:10.556Z,11.62
2023-05-04T21:27:17.055Z,11.10
2023-05-04T21:37:23.919Z,11.42
2023-05-04T21:47:30.805Z,11.29
2023-05-04T21:57:37.380Z,11.31
2023-05-04T22:07:44.005Z,11.19
2023-05-04T22:17:50.496Z,10.88
2023-05-04T22:27:56.988Z,10.90
2023-05-04T22:38:03.475Z,11.04
2023-05-04T22:48:10.011Z,11.01
2023-05-04T22:58:16.488Z,10.88
2023-05-04T23:08:22.937Z,10.76
2023-05-04T23:18:29.475Z,10.64
2023-05-04T23:28:35.942Z,10.65
2023-05-04T23:38:42.417Z,10.37
2023-05-04T23:48:48.962Z,10.35
2023-05-04T23:58:55.553Z,10.29
